Time;durP1;ratioP1;P1;durP2;ratioP2;P2;SDS_P1;SDS_P2;PMS_P1;PMS_P2;Temp;Humidity;BMP_temperature;BMP_pressure;BME280_temperature;BME280_humidity;BME280_pressure;Samples;Min_cycle;Max_cycle;Signal;HPM_P1;HPM_P2
2023/05/17 04:16:58;;;;;;;1.10;0.98;;;4.80;99.90;;;;;;5170918;23;20246;-76
2023/05/17 04:19:25;;;;;;;0.90;0.90;;;4.90;99.90;;;;;;4975807;28;20215;-76
2023/05/17 04:21:51;;;;;;;0.70;0.70;;;4.90;99.90;;;;;;4975827;28;20598;-75
2023/05/17 04:24:18;;;;;;;0.77;0.77;;;5.10;99.90;;;;;;4976097;28;20315;-75
2023/05/17 04:26:45;;;;;;;1.38;1.27;;;5.20;99.90;;;;;;4976067;28;20290;-75
2023/05/17 04:29:11;;;;;;;2.85;1.20;;;5.40;99.90;;;;;;4998231;23;20235;-71
2023/05/17 04:31:38;;;;;;;2.70;1.30;;;5.60;99.90;;;;;;4976183;28;20226;-71
2023/05/17 04:34:06;;;;;;;1.42;1.02;;;5.90;99.90;;;;;;4976328;28;20195;-70
2023/05/17 04:36:33;;;;;;;1.42;1.33;;;6.30;99.90;;;;;;4976222;28;20229;-70
2023/05/17 04:39:02;;;;;;;0.70;0.70;;;6.60;99.90;;;;;;4975901;28;20223;-72
2023/05/17 04:41:28;;;;;;;1.15;1.13;;;6.90;99.90;;;;;;4975887;28;20203;-70
2023/05/17 04:43:55;;;;;;;2.55;1.17;;;7.00;99.90;;;;;;4976337;28;20219;-70
2023/05/17 04:46:22;;;;;;;1.80;1.42;;;7.20;99.90;;;;;;4975864;28;20254;-70
2023/05/17 04:48:48;;;;;;;0.85;0.85;;;7.60;99.90;;;;;;4976838;28;20223;-70
2023/05/17 04:51:16;;;;;;;3.10;1.20;;;8.40;99.90;;;;;;4975572;28;20686;-68
2023/05/17 04:53:43;;;;;;;3.25;1.38;;;9.10;99.90;;;;;;4975728;28;20199;-68
2023/05/17 04:56:10;;;;;;;2.88;1.30;;;9.80;99.90;;;;;;4975674;28;20204;-68
2023/05/17 04:58:36;;;;;;;1.52;1.10;;;10.10;99.90;;;;;;4975783;28;20227;-68
2023/05/17 05:01:05;;;;;;;1.33;0.95;;;10.30;99.90;;;;;;4975016;28;20546;-69
2023/05/17 05:03:32;;;;;;;1.92;1.00;;;9.80;99.90;;;;;;4975028;28;20203;-72
2023/05/17 05:05:58;;;;;;;2.08;1.20;;;9.60;99.90;;;;;;4975324;28;20211;-70
2023/05/17 05:08:26;;;;;;;0.70;0.70;;;9.30;99.90;;;;;;4975314;28;20274;-70
2023/05/17 05:10:53;;;;;;;1.15;1.10;;;9.10;99.90;;;;;;4975402;28;20200;-70
2023/05/17 05:13:20;;;;;;;3.33;1.50;;;9.00;99.90;;;;;;4974842;28;20214;-69
2023/05/17 05:15:46;;;;;;;3.13;1.38;;;8.90;99.90;;;;;;4975227;28;20595;-69
2023/05/17 05:18:13;;;;;;;1.67;1.30;;;8.90;99.90;;;;;;4975143;28;20347;-69
2023/05/17 05:20:40;;;;;;;5.95;1.60;;;8.80;99.90;;;;;;4975122;28;20698;-71
2023/05/17 05:23:07;;;;;;;2.42;1.45;;;8.70;99.90;;;;;;4975127;28;20207;-71
2023/05/17 05:25:35;;;;;;;1.63;1.52;;;8.50;99.90;;;;;;4975015;28;20285;-71
2023/05/17 05:28:02;;;;;;;2.50;1.10;;;8.50;99.90;;;;;;4975258;28;20213;-71
2023/05/17 05:30:28;;;;;;;1.13;0.98;;;8.50;99.90;;;;;;4974790;28;20237;-71
2023/05/17 05:32:55;;;;;;;1.08;0.93;;;8.50;99.90;;;;;;4974979;28;20568;-71
2023/05/17 05:35:27;;;;;;;4.18;1.45;;;8.70;99.90;;;;;;4975209;28;20269;-71
2023/05/17 05:37:54;;;;;;;3.33;1.90;;;8.80;99.90;;;;;;4975055;28;20223;-71
2023/05/17 05:40:21;;;;;;;2.30;1.50;;;9.10;99.90;;;;;;4974431;28;20714;-72
2023/05/17 05:42:49;;;;;;;2.47;1.20;;;9.40;99.90;;;;;;4974846;28;20203;-72
2023/05/17 05:45:16;;;;;;;2.05;1.10;;;9.60;99.90;;;;;;4974641;28;20242;-72
2023/05/17 05:47:43;;;;;;;2.55;1.13;;;10.20;99.90;;;;;;4974750;28;20207;-72
2023/05/17 05:50:10;;;;;;;1.88;0.93;;;11.20;99.90;;;;;;4974612;28;20223;-72
2023/05/17 05:52:37;;;;;;;1.45;0.93;;;12.60;99.90;;;;;;4974782;28;20391;-72
2023/05/17 05:55:04;;;;;;;2.10;1.23;;;13.80;99.90;;;;;;4975328;28;20210;-72
2023/05/17 05:57:31;;;;;;;1.75;1.33;;;15.30;98.40;;;;;;4974677;28;20691;-72
2023/05/17 05:59:59;;;;;;;3.92;1.30;;;16.70;81.70;;;;;;4974620;28;20626;-73
2023/05/17 06:02:26;;;;;;;1.63;0.90;;;17.50;64.40;;;;;;4974560;28;20210;-72
2023/05/17 06:04:52;;;;;;;4.97;1.48;;;18.40;59.50;;;;;;4974536;28;20314;-72
2023/05/17 06:07:19;;;;;;;3.97;1.15;;;19.50;53.60;;;;;;4974629;28;20202;-72
2023/05/17 06:09:46;;;;;;;2.65;1.23;;;19.70;52.60;;;;;;4974456;28;20218;-72
2023/05/17 06:12:12;;;;;;;2.13;0.90;;;20.30;48.70;;;;;;4974495;28;20257;-72
2023/05/17 06:14:39;;;;;;;1.55;0.80;;;21.00;49.10;;;;;;4974476;28;20199;-72
2023/05/17 06:17:07;;;;;;;2.17;1.00;;;22.10;50.20;;;;;;4974409;28;20206;-72
2023/05/17 06:19:34;;;;;;;1.60;0.90;;;22.50;46.40;;;;;;4974350;28;20226;-72
2023/05/17 06:22:00;;;;;;;1.65;1.20;;;22.60;41.80;;;;;;4974403;28;20218;-72
2023/05/17 06:24:27;;;;;;;2.17;0.90;;;23.30;44.10;;;;;;4974355;28;20399;-72
2023/05/17 06:26:54;;;;;;;1.52;0.90;;;22.80;45.00;;;;;;4976923;28;20202;-72
2023/05/17 06:29:20;;;;;;;1.30;0.88;;;22.30;39.70;;;;;;4978137;28;20285;-72
2023/05/17 06:31:48;;;;;;;2.58;1.20;;;21.70;41.10;;;;;;4978287;28;20354;-72
2023/05/17 06:34:15;;;;;;;4.43;1.38;;;22.40;40.70;;;;;;4978272;28;20207;-72
2023/05/17 06:36:42;;;;;;;3.97;1.10;;;21.60;38.90;;;;;;4978218;28;20198;-72
2023/05/17 06:39:09;;;;;;;3.20;1.02;;;21.60;42.50;;;;;;4978372;28;20226;-72
2023/05/17 06:41:36;;;;;;;1.30;1.20;;;21.50;39.50;;;;;;4977880;28;20202;-72
2023/05/17 06:44:03;;;;;;;3.45;1.05;;;21.60;39.70;;;;;;4977683;28;20674;-72
2023/05/17 06:46:30;;;;;;;3.30;1.10;;;21.70;40.00;;;;;;4978067;28;20198;-73
2023/05/17 06:48:56;;;;;;;1.60;1.10;;;21.60;38.60;;;;;;4978721;28;20249;-73
2023/05/17 06:51:24;;;;;;;3.65;0.90;;;21.20;38.70;;;;;;4979057;28;20203;-73
2023/05/17 06:53:51;;;;;;;3.42;0.80;;;20.90;39.60;;;;;;4977528;28;20670;-73
2023/05/17 06:56:18;;;;;;;2.55;1.13;;;21.00;40.90;;;;;;4978404;28;20298;-72
2023/05/17 06:58:44;;;;;;;2.00;1.20;;;20.50;41.40;;;;;;4977788;28;20298;-72
2023/05/17 07:01:12;;;;;;;1.13;0.95;;;21.10;41.20;;;;;;4977701;28;20191;-72
2023/05/17 07:03:39;;;;;;;1.80;1.02;;;21.30;38.10;;;;;;4977753;28;20207;-72
2023/05/17 07:06:06;;;;;;;1.65;1.20;;;21.00;38.00;;;;;;4977578;28;20215;-72
2023/05/17 07:08:34;;;;;;;1.73;1.48;;;21.10;38.70;;;;;;4977585;28;20261;-72
2023/05/17 07:11:01;;;;;;;1.48;1.30;;;21.40;39.00;;;;;;4977569;28;20199;-72
2023/05/17 07:13:28;;;;;;;2.22;1.70;;;21.10;37.10;;;;;;4977158;28;20736;-72
2023/05/17 07:15:55;;;;;;;2.72;1.05;;;20.40;37.60;;;;;;4977362;28;20203;-72
2023/05/17 07:18:21;;;;;;;2.83;0.80;;;20.00;41.10;;;;;;4977040;28;20211;-72
2023/05/17 07:20:48;;;;;;;2.67;1.20;;;20.10;43.90;;;;;;4977372;28;20211;-72
2023/05/17 07:23:15;;;;;;;1.70;0.82;;;20.70;46.50;;;;;;4977351;28;20206;-72
2023/05/17 07:25:43;;;;;;;2.10;1.02;;;20.80;38.10;;;;;;4977265;28;20222;-72
2023/05/17 07:28:10;;;;;;;1.95;1.13;;;19.70;38.80;;;;;;4977155;28;20316;-72
2023/05/17 07:30:36;;;;;;;4.82;1.20;;;18.60;40.10;;;;;;4977347;28;20226;-72
2023/05/17 07:33:03;;;;;;;1.63;1.10;;;18.10;38.50;;;;;;4977629;28;20261;-72
2023/05/17 07:35:30;;;;;;;5.05;1.50;;;17.40;39.90;;;;;;4977563;28;20199;-72
2023/05/17 07:37:56;;;;;;;2.38;1.27;;;16.80;39.90;;;;;;4976665;28;20203;-72
2023/05/17 07:40:23;;;;;;;1.95;1.08;;;16.20;42.60;;;;;;4977023;28;20230;-72
2023/05/17 07:42:51;;;;;;;1.75;1.25;;;15.60;43.60;;;;;;4977572;28;20253;-72
2023/05/17 07:45:18;;;;;;;1.25;1.15;;;15.50;46.40;;;;;;4976814;28;20227;-71
2023/05/17 07:47:45;;;;;;;2.38;1.33;;;15.50;47.30;;;;;;4977221;28;20234;-72
2023/05/17 07:50:12;;;;;;;3.72;1.10;;;15.20;53.00;;;;;;4976843;28;20307;-71
2023/05/17 07:52:39;;;;;;;1.48;1.13;;;15.00;50.40;;;;;;4978950;28;20207;-71
2023/05/17 07:55:07;;;;;;;1.63;1.17;;;14.40;50.60;;;;;;4979865;28;20202;-71
2023/05/17 07:57:34;;;;;;;3.13;1.20;;;14.10;52.60;;;;;;4979793;28;20230;-71
2023/05/17 08:00:02;;;;;;;3.08;1.63;;;14.10;54.40;;;;;;4976449;28;20223;-72
2023/05/17 08:02:29;;;;;;;1.58;1.33;;;14.10;56.40;;;;;;4981202;28;20210;-72
2023/05/17 08:04:56;;;;;;;6.07;1.30;;;14.00;58.60;;;;;;4979522;28;20251;-72
2023/05/17 08:07:23;;;;;;;1.27;0.95;;;14.00;61.20;;;;;;4978933;28;20199;-72
2023/05/17 08:09:50;;;;;;;2.28;1.25;;;14.20;57.10;;;;;;4977995;28;20229;-72
2023/05/17 08:12:16;;;;;;;1.55;1.10;;;14.40;57.70;;;;;;4976820;28;20210;-72
2023/05/17 08:14:43;;;;;;;2.55;1.00;;;14.40;58.20;;;;;;4976615;28;20195;-72
2023/05/17 08:17:11;;;;;;;2.28;1.23;;;14.10;58.80;;;;;;4976554;28;20203;-72
2023/05/17 08:19:38;;;;;;;1.23;1.13;;;14.40;62.30;;;;;;4976401;28;20245;-72
2023/05/17 08:22:05;;;;;;;3.20;1.48;;;14.30;51.20;;;;;;4976134;28;20531;-72
2023/05/17 08:24:32;;;;;;;2.72;1.55;;;14.00;51.90;;;;;;4976294;28;20225;-72
2023/05/17 08:26:58;;;;;;;2.38;1.10;;;13.70;54.30;;;;;;4976649;28;20637;-72
2023/05/17 08:29:25;;;;;;;1.10;1.00;;;13.60;56.20;;;;;;4975993;28;20239;-72
2023/05/17 08:31:53;;;;;;;1.50;1.40;;;13.60;65.10;;;;;;4976392;28;20203;-72
2023/05/17 08:34:21;;;;;;;1.85;1.10;;;13.60;56.10;;;;;;4976128;28;20211;-72
2023/05/17 08:36:48;;;;;;;2.55;1.67;;;13.50;61.40;;;;;;4976416;28;20697;-72
2023/05/17 08:39:15;;;;;;;2.60;1.40;;;13.40;66.50;;;;;;4976342;28;20219;-72
2023/05/17 08:41:42;;;;;;;2.25;1.40;;;13.20;65.40;;;;;;4976232;28;20605;-72
2023/05/17 08:44:09;;;;;;;2.38;1.45;;;13.10;54.80;;;;;;4976159;28;20211;-72
2023/05/17 08:46:37;;;;;;;1.95;1.27;;;13.00;48.00;;;;;;4976071;28;20227;-72
2023/05/17 08:49:05;;;;;;;3.38;1.52;;;13.00;48.70;;;;;;4975360;28;20289;-72
2023/05/17 08:51:34;;;;;;;3.63;1.33;;;13.10;49.10;;;;;;4975813;28;20663;-72
2023/05/17 08:54:07;;;;;;;1.73;1.58;;;13.20;49.90;;;;;;4976168;28;20238;-72
2023/05/17 08:56:39;;;;;;;5.38;1.95;;;13.20;48.00;;;;;;4976965;28;20634;-72
2023/05/17 08:59:08;;;;;;;3.13;1.65;;;13.10;46.70;;;;;;4975883;28;20646;-72
2023/05/17 09:01:35;;;;;;;3.13;1.73;;;13.00;49.40;;;;;;4975766;28;20254;-72
2023/05/17 09:04:02;;;;;;;3.90;1.50;;;13.00;49.30;;;;;;4975928;28;20203;-72
2023/05/17 09:06:31;;;;;;;3.20;1.75;;;13.10;50.10;;;;;;4975625;28;20227;-72
2023/05/17 09:09:00;;;;;;;1.27;1.20;;;13.30;51.20;;;;;;4975330;28;20223;-72
2023/05/17 09:11:28;;;;;;;1.95;1.70;;;13.30;47.30;;;;;;4975390;28;20298;-72
2023/05/17 09:13:59;;;;;;;2.05;1.23;;;13.30;47.40;;;;;;4975221;28;20210;-72
2023/05/17 09:16:28;;;;;;;2.20;1.23;;;13.30;49.00;;;;;;4975550;28;20266;-71
2023/05/17 09:18:55;;;;;;;2.53;1.48;;;13.40;47.10;;;;;;4975413;28;20227;-71
2023/05/17 09:21:23;;;;;;;1.48;1.25;;;13.30;45.30;;;;;;4975147;28;20258;-71
2023/05/17 09:23:51;;;;;;;4.97;1.40;;;13.10;43.50;;;;;;4975176;28;20207;-71
2023/05/17 09:26:20;;;;;;;3.42;1.50;;;13.10;44.20;;;;;;4975177;28;20223;-71
2023/05/17 09:28:47;;;;;;;3.50;1.65;;;12.80;43.40;;;;;;4974899;28;20242;-71
2023/05/17 09:31:16;;;;;;;1.23;1.00;;;13.00;44.80;;;;;;4975054;28;20211;-71
2023/05/17 09:33:44;;;;;;;1.38;1.27;;;13.10;43.80;;;;;;4974921;28;20211;-71
2023/05/17 09:36:16;;;;;;;2.28;1.50;;;13.20;44.00;;;;;;4975232;28;20601;-73
2023/05/17 09:38:43;;;;;;;1.17;1.15;;;13.60;43.40;;;;;;4974794;28;20261;-72
2023/05/17 09:41:10;;;;;;;6.20;1.40;;;13.40;40.50;;;;;;4974734;28;20208;-71
2023/05/17 09:43:39;;;;;;;2.45;1.35;;;13.30;40.70;;;;;;4974846;28;20231;-71
2023/05/17 09:46:05;;;;;;;2.83;1.35;;;13.10;40.40;;;;;;4974657;28;20230;-71
2023/05/17 09:48:32;;;;;;;2.22;1.52;;;13.20;42.10;;;;;;4974650;28;20219;-72
2023/05/17 09:51:00;;;;;;;3.88;1.52;;;13.40;41.80;;;;;;4974627;28;20659;-72
2023/05/17 09:53:28;;;;;;;1.90;1.30;;;13.60;41.90;;;;;;4974620;28;20203;-72
2023/05/17 09:55:58;;;;;;;1.38;1.25;;;13.80;40.50;;;;;;4974739;28;20203;-72
2023/05/17 09:58:25;;;;;;;3.28;1.40;;;13.90;39.70;;;;;;4974607;28;20230;-72
2023/05/17 10:00:58;;;;;;;3.00;1.30;;;13.90;38.70;;;;;;4974622;28;20230;-70
2023/05/17 10:03:28;;;;;;;2.55;1.33;;;13.50;38.60;;;;;;4974769;28;20187;-70
2023/05/17 10:05:55;;;;;;;1.33;1.23;;;13.30;39.90;;;;;;4974665;28;20239;-70
2023/05/17 10:08:24;;;;;;;2.40;1.80;;;13.40;41.60;;;;;;4974393;28;20204;-70
2023/05/17 10:10:54;;;;;;;1.20;1.10;;;13.50;42.70;;;;;;4974519;28;20211;-70
2023/05/17 10:13:24;;;;;;;1.65;1.25;;;13.90;42.20;;;;;;4975568;28;20199;-70
2023/05/17 10:15:51;;;;;;;1.75;1.45;;;14.10;41.90;;;;;;4974155;28;20659;-70
2023/05/17 10:18:20;;;;;;;1.48;1.27;;;14.10;40.20;;;;;;4974649;28;20203;-70
2023/05/17 10:20:48;;;;;;;2.28;1.48;;;14.30;39.30;;;;;;4974546;28;20207;-70
2023/05/17 10:23:15;;;;;;;3.60;1.23;;;14.30;39.70;;;;;;4975164;28;20207;-70
2023/05/17 10:25:43;;;;;;;6.07;1.45;;;14.50;38.70;;;;;;4974136;28;20223;-70
2023/05/17 10:28:11;;;;;;;1.30;1.10;;;14.50;37.90;;;;;;4974061;28;20214;-70
2023/05/17 10:30:38;;;;;;;2.88;1.50;;;14.40;37.20;;;;;;4974121;28;20577;-70
2023/05/17 10:33:06;;;;;;;1.23;1.23;;;14.40;39.30;;;;;;4974293;28;20210;-70
2023/05/17 10:35:35;;;;;;;4.05;1.33;;;14.40;37.70;;;;;;4974281;28;20203;-70
2023/05/17 10:38:04;;;;;;;1.35;1.35;;;14.30;36.80;;;;;;4974173;28;20213;-70
2023/05/17 10:40:31;;;;;;;1.42;1.30;;;14.00;35.40;;;;;;4974093;28;20214;-71
2023/05/17 10:42:59;;;;;;;2.47;1.45;;;13.90;34.50;;;;;;4974155;28;20234;-71
2023/05/17 10:45:27;;;;;;;4.90;1.17;;;13.80;36.10;;;;;;4974062;28;20214;-71
2023/05/17 10:47:54;;;;;;;1.20;1.10;;;13.80;36.20;;;;;;4974621;28;20210;-71
2023/05/17 10:50:22;;;;;;;3.60;1.55;;;13.70;37.00;;;;;;4974095;28;20219;-71
2023/05/17 10:52:54;;;;;;;3.70;1.40;;;13.90;38.00;;;;;;4974031;28;20566;-71
2023/05/17 10:55:23;;;;;;;1.92;1.15;;;13.90;36.00;;;;;;4974065;28;20195;-71
2023/05/17 10:58:18;;;;;;;1.63;1.52;;;13.80;36.10;;;;;;4974186;28;20208;-71
2023/05/17 11:00:47;;;;;;;1.58;1.20;;;13.60;35.40;;;;;;4973777;28;20668;-71
2023/05/17 11:03:15;;;;;;;1.45;1.30;;;13.50;35.10;;;;;;4974291;28;20215;-71
2023/05/17 11:05:43;;;;;;;2.17;1.50;;;13.40;35.70;;;;;;4973954;28;20219;-71
2023/05/17 11:08:15;;;;;;;5.03;1.45;;;13.30;36.50;;;;;;4973892;28;20211;-71
2023/05/17 11:11:08;;;;;;;1.52;1.42;;;13.30;36.20;;;;;;4974015;28;20192;-72
2023/05/17 11:13:35;;;;;;;1.55;1.27;;;13.20;36.10;;;;;;4977214;28;20223;-70
2023/05/17 11:16:07;;;;;;;2.78;1.25;;;13.30;36.80;;;;;;4977420;28;20291;-70
2023/05/17 11:18:50;;;;;;;1.73;1.60;;;13.30;35.80;;;;;;4977054;28;20226;-70
2023/05/17 11:21:17;;;;;;;4.70;1.55;;;13.50;36.30;;;;;;4977108;28;20663;-70
2023/05/17 11:23:46;;;;;;;2.90;1.27;;;13.60;35.80;;;;;;4977338;28;20199;-70
2023/05/17 11:26:18;;;;;;;1.30;1.20;;;13.80;35.50;;;;;;4976955;28;20567;-70
2023/05/17 11:28:45;;;;;;;3.25;1.70;;;13.90;35.40;;;;;;4977517;28;20327;-70
2023/05/17 11:31:11;;;;;;;1.75;1.15;;;14.10;36.10;;;;;;4977195;28;20207;-70
2023/05/17 11:33:42;;;;;;;1.85;1.58;;;14.20;38.20;;;;;;4977237;28;20235;-70
2023/05/17 11:36:18;;;;;;;3.28;1.52;;;14.50;37.50;;;;;;4977261;28;20191;-70
2023/05/17 11:38:49;;;;;;;3.90;1.55;;;14.50;38.50;;;;;;4977242;28;20245;-71
2023/05/17 11:41:20;;;;;;;3.13;1.85;;;14.50;37.80;;;;;;4977447;28;20246;-71
2023/05/17 11:43:48;;;;;;;3.47;1.55;;;14.40;36.80;;;;;;4977076;28;20290;-71
2023/05/17 11:46:22;;;;;;;2.13;1.90;;;14.20;37.10;;;;;;4976965;28;20310;-71
2023/05/17 11:48:50;;;;;;;1.50;1.40;;;14.10;37.30;;;;;;4976874;28;20222;-71
2023/05/17 11:51:18;;;;;;;1.63;1.52;;;14.20;38.20;;;;;;4976638;28;20209;-71
2023/05/17 11:53:47;;;;;;;2.40;1.85;;;14.50;38.60;;;;;;4977008;28;20211;-71
2023/05/17 11:56:15;;;;;;;4.10;1.40;;;14.80;38.70;;;;;;4976960;28;20285;-71
2023/05/17 11:58:43;;;;;;;1.45;1.27;;;14.80;35.00;;;;;;4976706;28;20224;-71
2023/05/17 12:01:09;;;;;;;2.15;1.50;;;14.70;37.20;;;;;;4976587;28;20690;-71
2023/05/17 12:03:36;;;;;;;3.08;1.77;;;14.80;35.50;;;;;;4977400;28;20210;-70
2023/05/17 12:06:05;;;;;;;1.60;1.50;;;14.80;35.70;;;;;;4977149;28;20254;-70
2023/05/17 12:08:34;;;;;;;1.88;1.70;;;14.70;35.30;;;;;;4976759;28;20223;-70
2023/05/17 12:11:02;;;;;;;2.83;1.95;;;14.60;35.90;;;;;;4976422;28;20740;-70
2023/05/17 12:13:30;;;;;;;2.42;1.70;;;14.60;35.00;;;;;;4976299;28;20203;-70
2023/05/17 12:15:59;;;;;;;2.35;1.70;;;14.50;34.30;;;;;;4976469;28;20207;-70
2023/05/17 12:18:36;;;;;;;3.47;1.80;;;14.30;35.60;;;;;;4975875;28;20627;-70
2023/05/17 12:21:03;;;;;;;3.05;1.67;;;14.30;36.10;;;;;;4975985;28;20219;-70
2023/05/17 12:23:31;;;;;;;2.15;1.88;;;14.50;37.50;;;;;;4976520;28;20246;-70
2023/05/17 12:26:08;;;;;;;5.47;2.00;;;14.70;37.20;;;;;;4975939;28;20211;-70
2023/05/17 12:28:37;;;;;;;3.67;1.73;;;14.90;37.20;;;;;;4975793;28;20239;-70
2023/05/17 12:31:05;;;;;;;2.38;1.73;;;14.90;37.70;;;;;;4976072;28;20191;-70
2023/05/17 12:33:35;;;;;;;2.08;1.80;;;14.90;37.50;;;;;;4976000;28;20203;-70
2023/05/17 12:36:03;;;;;;;2.95;2.03;;;14.90;38.20;;;;;;4975978;28;20214;-70
2023/05/17 12:38:32;;;;;;;5.10;1.80;;;14.70;38.00;;;;;;4976537;28;20219;-70
2023/05/17 12:41:01;;;;;;;2.95;1.90;;;14.40;37.70;;;;;;4975501;28;20574;-70
2023/05/17 12:43:30;;;;;;;5.22;1.92;;;14.30;39.40;;;;;;4976172;28;20203;-71
2023/05/17 12:46:03;;;;;;;1.77;1.67;;;14.30;40.90;;;;;;4975693;28;20214;-70
2023/05/17 12:48:29;;;;;;;2.95;2.03;;;14.40;41.00;;;;;;4975757;28;20265;-70
2023/05/17 12:50:56;;;;;;;4.47;1.58;;;14.60;40.70;;;;;;4975699;28;20219;-70
2023/05/17 12:53:24;;;;;;;5.78;1.88;;;14.70;39.40;;;;;;4975272;28;20666;-70
2023/05/17 12:55:56;;;;;;;2.90;1.90;;;14.60;38.80;;;;;;4975587;28;20192;-70
2023/05/17 12:58:22;;;;;;;4.07;1.90;;;14.40;37.80;;;;;;4975476;28;20716;-70
2023/05/17 13:01:02;;;;;;;3.50;1.77;;;14.20;37.60;;;;;;4975508;28;20207;-70
2023/05/17 13:03:29;;;;;;;1.88;1.77;;;14.20;39.00;;;;;;4975682;28;20192;-70
2023/05/17 13:06:04;;;;;;;1.88;1.75;;;14.20;39.00;;;;;;4975408;28;20261;-69
2023/05/17 13:08:31;;;;;;;3.03;1.73;;;14.30;37.70;;;;;;4975118;28;20254;-69
2023/05/17 13:11:09;;;;;;;1.67;1.58;;;14.40;39.80;;;;;;4975444;28;20215;-70
2023/05/17 13:13:36;;;;;;;2.08;1.90;;;14.70;38.80;;;;;;4975447;28;20210;-71
2023/05/17 13:16:05;;;;;;;2.33;2.10;;;14.70;37.20;;;;;;4975318;28;20212;-69
2023/05/17 13:18:46;;;;;;;2.53;2.15;;;14.60;37.80;;;;;;4975223;28;20220;-70
2023/05/17 13:21:12;;;;;;;1.60;1.50;;;14.50;37.40;;;;;;4975164;28;20198;-69
2023/05/17 13:23:42;;;;;;;3.22;1.58;;;14.40;38.80;;;;;;4975294;28;20199;-69
2023/05/17 13:26:09;;;;;;;2.40;2.03;;;14.50;37.80;;;;;;4975063;28;20234;-70
2023/05/17 13:28:37;;;;;;;2.63;1.77;;;14.50;36.80;;;;;;4974845;28;20231;-70
2023/05/17 13:31:05;;;;;;;2.53;1.80;;;14.30;36.40;;;;;;4975177;28;20187;-70
2023/05/17 13:33:32;;;;;;;2.03;1.60;;;14.00;36.30;;;;;;4974980;28;20210;-70
2023/05/17 13:35:59;;;;;;;3.45;2.28;;;13.90;37.50;;;;;;4974453;28;20218;-70
2023/05/17 13:38:25;;;;;;;3.65;2.15;;;13.90;40.30;;;;;;4975179;28;20235;-70
2023/05/17 13:40:52;;;;;;;2.08;1.95;;;14.00;42.30;;;;;;4974925;28;20207;-70
2023/05/17 13:43:19;;;;;;;4.03;2.20;;;14.10;42.80;;;;;;4974788;28;20214;-70
2023/05/17 13:45:49;;;;;;;4.05;2.38;;;14.20;43.20;;;;;;4974880;28;20283;-70
2023/05/17 13:48:17;;;;;;;2.75;1.85;;;14.30;43.10;;;;;;4974397;28;20697;-70
2023/05/17 13:50:44;;;;;;;2.97;2.00;;;14.20;43.60;;;;;;4975529;28;20207;-70
2023/05/17 13:53:11;;;;;;;2.45;2.25;;;14.30;42.50;;;;;;4974359;28;20677;-70
2023/05/17 13:55:38;;;;;;;2.33;2.00;;;14.30;41.90;;;;;;4974480;28;20204;-70
2023/05/17 13:58:05;;;;;;;3.63;2.22;;;14.20;41.30;;;;;;4974598;28;20184;-70
2023/05/17 14:00:32;;;;;;;2.78;2.05;;;14.20;42.00;;;;;;4974117;28;20698;-69
2023/05/17 14:02:58;;;;;;;2.40;1.98;;;14.20;42.50;;;;;;4974490;28;20632;-69
2023/05/17 14:05:26;;;;;;;4.18;2.63;;;14.30;42.90;;;;;;4974451;28;20214;-69
2023/05/17 14:07:53;;;;;;;3.28;2.10;;;14.30;44.00;;;;;;4974235;28;20220;-69
2023/05/17 14:10:20;;;;;;;3.30;2.00;;;14.30;46.00;;;;;;4977610;28;20611;-69
2023/05/17 14:12:47;;;;;;;4.35;2.25;;;14.30;44.50;;;;;;4979361;28;20266;-69
2023/05/17 14:15:15;;;;;;;2.30;2.10;;;14.40;43.30;;;;;;4979251;28;20203;-69
2023/05/17 14:17:42;;;;;;;4.53;2.33;;;14.10;42.30;;;;;;4979009;28;20618;-69
2023/05/17 14:20:09;;;;;;;5.00;2.70;;;14.10;41.40;;;;;;4976569;28;20219;-69
2023/05/17 14:22:38;;;;;;;2.72;2.17;;;14.00;42.60;;;;;;4981653;28;20663;-69
2023/05/17 14:25:06;;;;;;;2.78;2.05;;;14.10;42.30;;;;;;4981139;28;20238;-70
2023/05/17 14:27:33;;;;;;;2.55;2.35;;;14.30;42.50;;;;;;4979765;28;20246;-70
2023/05/17 14:30:01;;;;;;;2.22;1.90;;;14.40;41.40;;;;;;4979546;28;20231;-70
2023/05/17 14:32:28;;;;;;;2.53;2.33;;;14.30;41.80;;;;;;4979602;28;20207;-69
2023/05/17 14:34:55;;;;;;;5.55;2.92;;;14.30;43.50;;;;;;4979667;28;20207;-69
2023/05/17 14:37:22;;;;;;;4.30;2.65;;;14.20;43.90;;;;;;4979756;28;20262;-69
2023/05/17 14:39:51;;;;;;;2.00;1.90;;;14.20;45.50;;;;;;4980596;28;20757;-69
2023/05/17 14:42:18;;;;;;;4.72;1.92;;;14.20;45.70;;;;;;4979794;28;20250;-70
2023/05/17 14:44:46;;;;;;;4.72;2.42;;;14.20;46.00;;;;;;4979648;28;20295;-70
2023/05/17 14:47:13;;;;;;;2.67;2.40;;;14.20;46.70;;;;;;4980519;28;20231;-70
2023/05/17 14:49:40;;;;;;;2.70;2.10;;;14.10;45.50;;;;;;4983222;28;20219;-69
2023/05/17 14:52:08;;;;;;;4.20;1.98;;;14.10;47.30;;;;;;4983969;28;20631;-69
2023/05/17 14:54:35;;;;;;;2.40;2.15;;;14.20;46.00;;;;;;4983165;28;20199;-69
2023/05/17 14:57:04;;;;;;;2.53;2.00;;;14.00;44.20;;;;;;4984654;28;20634;-70
2023/05/17 14:59:31;;;;;;;4.30;2.40;;;14.00;46.70;;;;;;4984113;28;20302;-70
2023/05/17 15:02:01;;;;;;;2.80;2.20;;;14.00;45.60;;;;;;4983900;28;20302;-70
2023/05/17 15:04:27;;;;;;;3.05;1.83;;;14.00;45.10;;;;;;4980578;28;20210;-70
2023/05/17 15:06:54;;;;;;;1.98;1.77;;;14.10;45.50;;;;;;4978092;28;20223;-70
2023/05/17 15:09:22;;;;;;;3.25;2.45;;;14.10;43.90;;;;;;4978047;28;20234;-70
2023/05/17 15:11:49;;;;;;;2.60;2.10;;;14.00;44.30;;;;;;4978198;28;20227;-70
2023/05/17 15:14:20;;;;;;;2.63;2.42;;;13.80;45.00;;;;;;4977762;28;20203;-70
2023/05/17 15:16:47;;;;;;;2.70;2.35;;;13.80;45.00;;;;;;4977633;28;20595;-70
2023/05/17 15:19:14;;;;;;;2.47;2.08;;;13.60;46.20;;;;;;4978949;28;20226;-70
2023/05/17 15:21:41;;;;;;;2.95;2.08;;;13.50;47.60;;;;;;4978240;28;20239;-70
2023/05/17 15:24:08;;;;;;;3.67;2.25;;;13.40;48.10;;;;;;4977686;28;20732;-70
2023/05/17 15:26:35;;;;;;;2.53;2.33;;;13.40;49.40;;;;;;4978374;28;20203;-70
2023/05/17 15:29:02;;;;;;;2.70;2.22;;;13.40;49.60;;;;;;4978392;28;20227;-70
2023/05/17 15:31:30;;;;;;;4.15;2.30;;;13.40;49.30;;;;;;4979144;28;20207;-70
2023/05/17 15:33:57;;;;;;;4.07;2.25;;;13.40;48.40;;;;;;4977815;28;20668;-70
2023/05/17 15:36:24;;;;;;;3.65;2.60;;;13.30;47.90;;;;;;4977274;28;20207;-71
2023/05/17 15:38:51;;;;;;;2.80;2.55;;;13.20;48.90;;;;;;4976955;28;20219;-70
2023/05/17 15:41:20;;;;;;;3.10;2.45;;;13.10;49.30;;;;;;4977869;28;20210;-70
2023/05/17 15:43:47;;;;;;;4.22;2.85;;;13.00;51.40;;;;;;4977864;28;20271;-70
2023/05/17 15:46:13;;;;;;;3.10;2.80;;;12.90;51.70;;;;;;4977554;28;20266;-70
2023/05/17 15:48:41;;;;;;;3.63;2.47;;;12.80;54.00;;;;;;4977190;28;20699;-70
2023/05/17 15:51:08;;;;;;;4.40;2.75;;;12.80;55.50;;;;;;4977647;28;20200;-70
2023/05/17 15:53:35;;;;;;;4.70;2.70;;;12.90;57.70;;;;;;4977417;28;20214;-70
2023/05/17 15:56:02;;;;;;;9.65;3.10;;;12.90;57.20;;;;;;4977011;28;20203;-70
2023/05/17 15:58:31;;;;;;;3.42;2.50;;;13.00;56.20;;;;;;4976434;28;20219;-71
2023/05/17 16:00:58;;;;;;;3.80;2.97;;;13.10;56.40;;;;;;4976887;28;20255;-70
2023/05/17 16:03:25;;;;;;;4.07;2.47;;;13.10;55.70;;;;;;4976563;28;20571;-70
2023/05/17 16:05:53;;;;;;;3.80;2.85;;;13.10;56.70;;;;;;4976999;28;20207;-71
2023/05/17 16:08:20;;;;;;;4.25;2.90;;;13.00;58.10;;;;;;4976844;28;20223;-70
2023/05/17 16:10:47;;;;;;;3.80;2.63;;;12.90;59.80;;;;;;4976765;28;20259;-69
2023/05/17 16:13:13;;;;;;;3.20;2.90;;;12.90;61.80;;;;;;4976987;28;20246;-69
2023/05/17 16:15:40;;;;;;;5.15;2.88;;;12.90;63.70;;;;;;4977500;28;20214;-70
2023/05/17 16:18:09;;;;;;;7.25;3.22;;;12.80;64.70;;;;;;4976660;28;20291;-71
2023/05/17 16:20:36;;;;;;;6.15;3.10;;;12.80;60.80;;;;;;4976437;28;20208;-70
2023/05/17 16:23:04;;;;;;;4.95;2.92;;;12.70;60.30;;;;;;4976599;28;20694;-70
2023/05/17 16:25:30;;;;;;;2.95;2.38;;;12.70;63.40;;;;;;4976557;28;20225;-70
2023/05/17 16:27:57;;;;;;;5.18;2.80;;;12.60;63.00;;;;;;4976245;28;20234;-69
2023/05/17 16:30:24;;;;;;;3.70;2.83;;;12.70;65.00;;;;;;4976111;28;20235;-68
2023/05/17 16:32:50;;;;;;;5.45;2.60;;;12.70;64.70;;;;;;4976237;28;20323;-70
2023/05/17 16:35:20;;;;;;;7.10;3.80;;;12.70;62.60;;;;;;4976233;28;20214;-69
2023/05/17 16:37:47;;;;;;;5.10;3.03;;;12.60;63.90;;;;;;4976126;28;20203;-69
2023/05/17 16:40:15;;;;;;;3.35;2.60;;;12.60;63.80;;;;;;4975960;28;20231;-69
2023/05/17 16:42:43;;;;;;;5.25;3.03;;;12.50;66.90;;;;;;4976093;28;20290;-68
2023/05/17 16:45:10;;;;;;;2.42;2.22;;;12.50;69.20;;;;;;4976195;28;20290;-69
2023/05/17 16:47:37;;;;;;;5.90;2.85;;;12.50;71.50;;;;;;4976465;28;20571;-69
2023/05/17 16:50:04;;;;;;;4.63;2.60;;;12.50;71.50;;;;;;4975961;28;20238;-69
2023/05/17 16:52:31;;;;;;;3.85;2.75;;;12.60;71.00;;;;;;4976082;28;20207;-69
2023/05/17 16:55:02;;;;;;;2.85;2.65;;;12.50;69.50;;;;;;4975817;28;20218;-70
2023/05/17 16:57:30;;;;;;;4.18;3.00;;;12.40;69.10;;;;;;4976199;28;20250;-70
2023/05/17 16:59:57;;;;;;;2.60;2.35;;;12.30;64.70;;;;;;4976523;28;20223;-70
2023/05/17 17:02:24;;;;;;;3.22;2.85;;;12.20;68.70;;;;;;4977081;28;20642;-70
2023/05/17 17:04:51;;;;;;;4.43;2.53;;;12.10;71.00;;;;;;4975982;28;20203;-71
2023/05/17 17:07:18;;;;;;;4.85;2.63;;;12.20;73.90;;;;;;4976639;28;20203;-71